sensor_id;sensor_type;location;lat;lon;timestamp;P1;durP1;ratioP1;P2;durP2;ratioP2
64560;SDS011;50960;46.838;16.838;2022-11-15T00:00:52;28.58;;;19.35;;
64560;SDS011;50960;46.838;16.838;2022-11-15T00:03:19;30.77;;;21.27;;
64560;SDS011;50960;46.838;16.838;2022-11-15T00:05:47;29.95;;;21.08;;
64560;SDS011;50960;46.838;16.838;2022-11-15T00:08:14;30.27;;;19.98;;
64560;SDS011;50960;46.838;16.838;2022-11-15T00:10:40;30.08;;;20.48;;
64560;SDS011;50960;46.838;16.838;2022-11-15T00:13:08;28.88;;;20.48;;
64560;SDS011;50960;46.838;16.838;2022-11-15T00:15:36;28.25;;;20.05;;
64560;SDS011;50960;46.838;16.838;2022-11-15T00:18:04;29.38;;;20.50;;
64560;SDS011;50960;46.838;16.838;2022-11-15T00:20:33;29.05;;;20.85;;
64560;SDS011;50960;46.838;16.838;2022-11-15T00:22:59;29.75;;;20.73;;
64560;SDS011;50960;46.838;16.838;2022-11-15T00:25:26;29.95;;;21.27;;
64560;SDS011;50960;46.838;16.838;2022-11-15T00:27:56;30.05;;;20.58;;
64560;SDS011;50960;46.838;16.838;2022-11-15T00:30:22;29.60;;;20.15;;
64560;SDS011;50960;46.838;16.838;2022-11-15T00:32:49;30.00;;;20.75;;
64560;SDS011;50960;46.838;16.838;2022-11-15T00:35:15;28.70;;;20.35;;
64560;SDS011;50960;46.838;16.838;2022-11-15T00:37:42;30.95;;;21.05;;
64560;SDS011;50960;46.838;16.838;2022-11-15T00:40:08;29.17;;;21.02;;
64560;SDS011;50960;46.838;16.838;2022-11-15T00:42:35;26.55;;;18.75;;
64560;SDS011;50960;46.838;16.838;2022-11-15T00:45:01;30.63;;;19.92;;
64560;SDS011;50960;46.838;16.838;2022-11-15T00:47:28;30.27;;;20.88;;
64560;SDS011;50960;46.838;16.838;2022-11-15T00:49:54;31.60;;;21.15;;
64560;SDS011;50960;46.838;16.838;2022-11-15T00:52:20;30.70;;;20.77;;
64560;SDS011;50960;46.838;16.838;2022-11-15T00:54:47;30.23;;;21.33;;
64560;SDS011;50960;46.838;16.838;2022-11-15T00:57:13;31.20;;;21.13;;
64560;SDS011;50960;46.838;16.838;2022-11-15T00:59:39;31.15;;;21.35;;
64560;SDS011;50960;46.838;16.838;2022-11-15T01:02:05;31.58;;;21.63;;
64560;SDS011;50960;46.838;16.838;2022-11-15T01:04:31;32.25;;;22.40;;
64560;SDS011;50960;46.838;16.838;2022-11-15T01:06:58;33.67;;;22.05;;
64560;SDS011;50960;46.838;16.838;2022-11-15T01:09:24;33.13;;;21.90;;
64560;SDS011;50960;46.838;16.838;2022-11-15T01:11:50;31.65;;;22.45;;
64560;SDS011;50960;46.838;16.838;2022-11-15T01:14:17;32.90;;;21.98;;
64560;SDS011;50960;46.838;16.838;2022-11-15T01:16:43;34.03;;;22.95;;
64560;SDS011;50960;46.838;16.838;2022-11-15T01:19:09;33.53;;;22.85;;
64560;SDS011;50960;46.838;16.838;2022-11-15T01:21:36;36.92;;;25.70;;
64560;SDS011;50960;46.838;16.838;2022-11-15T01:24:02;35.95;;;25.52;;
64560;SDS011;50960;46.838;16.838;2022-11-15T01:26:28;32.92;;;22.52;;
64560;SDS011;50960;46.838;16.838;2022-11-15T01:28:55;33.55;;;22.42;;
64560;SDS011;50960;46.838;16.838;2022-11-15T01:31:21;32.22;;;21.33;;
64560;SDS011;50960;46.838;16.838;2022-11-15T01:33:48;33.63;;;22.85;;
64560;SDS011;50960;46.838;16.838;2022-11-15T01:36:18;30.80;;;21.67;;
64560;SDS011;50960;46.838;16.838;2022-11-15T01:38:55;32.65;;;21.55;;
64560;SDS011;50960;46.838;16.838;2022-11-15T01:41:30;32.65;;;22.27;;
64560;SDS011;50960;46.838;16.838;2022-11-15T01:44:31;31.70;;;21.70;;
64560;SDS011;50960;46.838;16.838;2022-11-15T01:46:59;30.38;;;20.83;;
64560;SDS011;50960;46.838;16.838;2022-11-15T01:49:29;32.53;;;22.52;;
64560;SDS011;50960;46.838;16.838;2022-11-15T01:51:58;30.48;;;21.13;;
64560;SDS011;50960;46.838;16.838;2022-11-15T01:54:26;32.05;;;21.75;;
64560;SDS011;50960;46.838;16.838;2022-11-15T01:56:53;30.50;;;21.13;;
64560;SDS011;50960;46.838;16.838;2022-11-15T01:59:22;28.88;;;20.23;;
64560;SDS011;50960;46.838;16.838;2022-11-15T02:01:49;30.73;;;20.30;;
64560;SDS011;50960;46.838;16.838;2022-11-15T02:04:17;25.73;;;19.48;;
64560;SDS011;50960;46.838;16.838;2022-11-15T02:06:48;26.33;;;18.38;;
64560;SDS011;50960;46.838;16.838;2022-11-15T02:09:15;24.98;;;18.15;;
64560;SDS011;50960;46.838;16.838;2022-11-15T02:11:42;25.00;;;18.55;;
64560;SDS011;50960;46.838;16.838;2022-11-15T02:14:11;27.95;;;19.00;;
64560;SDS011;50960;46.838;16.838;2022-11-15T02:19:27;23.02;;;18.55;;
64560;SDS011;50960;46.838;16.838;2022-11-15T02:30:55;25.98;;;19.33;;
64560;SDS011;50960;46.838;16.838;2022-11-15T02:42:02;31.40;;;20.40;;
64560;SDS011;50960;46.838;16.838;2022-11-15T02:44:53;28.70;;;20.23;;
64560;SDS011;50960;46.838;16.838;2022-11-15T02:47:22;29.15;;;20.00;;
64560;SDS011;50960;46.838;16.838;2022-11-15T02:49:50;28.02;;;20.15;;
64560;SDS011;50960;46.838;16.838;2022-11-15T02:52:20;28.90;;;19.13;;
64560;SDS011;50960;46.838;16.838;2022-11-15T02:54:59;26.77;;;19.33;;
64560;SDS011;50960;46.838;16.838;2022-11-15T03:07:51;27.38;;;18.65;;
64560;SDS011;50960;46.838;16.838;2022-11-15T03:10:36;27.90;;;18.67;;
64560;SDS011;50960;46.838;16.838;2022-11-15T03:13:10;29.17;;;19.50;;
64560;SDS011;50960;46.838;16.838;2022-11-15T03:16:03;28.83;;;20.38;;
64560;SDS011;50960;46.838;16.838;2022-11-15T03:18:38;28.08;;;19.77;;
64560;SDS011;50960;46.838;16.838;2022-11-15T03:21:09;30.00;;;18.88;;
64560;SDS011;50960;46.838;16.838;2022-11-15T03:23:39;29.75;;;20.25;;
64560;SDS011;50960;46.838;16.838;2022-11-15T03:26:07;28.23;;;19.92;;
64560;SDS011;50960;46.838;16.838;2022-11-15T03:28:38;29.77;;;20.13;;
64560;SDS011;50960;46.838;16.838;2022-11-15T03:31:08;28.45;;;20.08;;
64560;SDS011;50960;46.838;16.838;2022-11-15T03:33:55;28.95;;;19.88;;
64560;SDS011;50960;46.838;16.838;2022-11-15T03:36:24;28.73;;;19.75;;
64560;SDS011;50960;46.838;16.838;2022-11-15T03:38:53;29.15;;;19.80;;
64560;SDS011;50960;46.838;16.838;2022-11-15T03:41:28;28.10;;;20.38;;
64560;SDS011;50960;46.838;16.838;2022-11-15T03:46:47;28.90;;;19.58;;
64560;SDS011;50960;46.838;16.838;2022-11-15T03:49:30;32.20;;;22.25;;
64560;SDS011;50960;46.838;16.838;2022-11-15T03:52:00;33.03;;;21.92;;
64560;SDS011;50960;46.838;16.838;2022-11-15T03:54:28;30.95;;;21.15;;
64560;SDS011;50960;46.838;16.838;2022-11-15T03:56:54;31.08;;;21.40;;
64560;SDS011;50960;46.838;16.838;2022-11-15T03:59:21;30.98;;;20.63;;
64560;SDS011;50960;46.838;16.838;2022-11-15T04:01:47;33.08;;;21.60;;
64560;SDS011;50960;46.838;16.838;2022-11-15T04:04:13;31.23;;;21.10;;
64560;SDS011;50960;46.838;16.838;2022-11-15T04:06:39;32.20;;;21.98;;
64560;SDS011;50960;46.838;16.838;2022-11-15T04:09:06;32.22;;;20.83;;
64560;SDS011;50960;46.838;16.838;2022-11-15T04:11:32;31.70;;;20.35;;
64560;SDS011;50960;46.838;16.838;2022-11-15T04:13:58;30.73;;;20.83;;
64560;SDS011;50960;46.838;16.838;2022-11-15T04:16:24;31.02;;;20.15;;
64560;SDS011;50960;46.838;16.838;2022-11-15T04:18:51;32.08;;;21.02;;
64560;SDS011;50960;46.838;16.838;2022-11-15T04:21:37;32.00;;;21.17;;
64560;SDS011;50960;46.838;16.838;2022-11-15T04:24:21;32.00;;;20.95;;
64560;SDS011;50960;46.838;16.838;2022-11-15T04:26:47;32.35;;;21.65;;
64560;SDS011;50960;46.838;16.838;2022-11-15T04:29:14;31.95;;;21.58;;
64560;SDS011;50960;46.838;16.838;2022-11-15T04:31:59;31.10;;;21.10;;
64560;SDS011;50960;46.838;16.838;2022-11-15T04:34:25;30.42;;;20.77;;
64560;SDS011;50960;46.838;16.838;2022-11-15T04:36:51;31.73;;;21.00;;
64560;SDS011;50960;46.838;16.838;2022-11-15T04:39:36;29.15;;;20.55;;
64560;SDS011;50960;46.838;16.838;2022-11-15T04:42:02;31.13;;;20.90;;
64560;SDS011;50960;46.838;16.838;2022-11-15T04:44:29;32.05;;;20.52;;
64560;SDS011;50960;46.838;16.838;2022-11-15T04:46:55;31.20;;;20.33;;
64560;SDS011;50960;46.838;16.838;2022-11-15T04:49:21;31.67;;;20.75;;
64560;SDS011;50960;46.838;16.838;2022-11-15T04:51:47;31.58;;;21.00;;
64560;SDS011;50960;46.838;16.838;2022-11-15T04:54:14;29.35;;;20.40;;
64560;SDS011;50960;46.838;16.838;2022-11-15T04:56:40;30.98;;;20.27;;
64560;SDS011;50960;46.838;16.838;2022-11-15T04:59:06;29.80;;;20.52;;
64560;SDS011;50960;46.838;16.838;2022-11-15T05:01:32;28.65;;;20.27;;
64560;SDS011;50960;46.838;16.838;2022-11-15T05:03:59;29.00;;;20.08;;
64560;SDS011;50960;46.838;16.838;2022-11-15T05:06:44;28.50;;;19.45;;
64560;SDS011;50960;46.838;16.838;2022-11-15T05:09:14;29.50;;;20.00;;
64560;SDS011;50960;46.838;16.838;2022-11-15T05:11:41;31.10;;;20.17;;
64560;SDS011;50960;46.838;16.838;2022-11-15T05:14:07;26.90;;;19.75;;
64560;SDS011;50960;46.838;16.838;2022-11-15T05:16:33;28.40;;;20.40;;
64560;SDS011;50960;46.838;16.838;2022-11-15T05:19:00;35.17;;;25.33;;
64560;SDS011;50960;46.838;16.838;2022-11-15T05:21:26;27.05;;;19.17;;
64560;SDS011;50960;46.838;16.838;2022-11-15T05:23:53;28.45;;;20.70;;
64560;SDS011;50960;46.838;16.838;2022-11-15T05:26:19;31.67;;;21.73;;
64560;SDS011;50960;46.838;16.838;2022-11-15T05:28:45;28.67;;;20.58;;
64560;SDS011;50960;46.838;16.838;2022-11-15T05:31:15;28.13;;;19.42;;
64560;SDS011;50960;46.838;16.838;2022-11-15T05:33:42;27.80;;;19.58;;
64560;SDS011;50960;46.838;16.838;2022-11-15T05:38:36;27.17;;;19.38;;
64560;SDS011;50960;46.838;16.838;2022-11-15T05:41:02;28.57;;;19.20;;
64560;SDS011;50960;46.838;16.838;2022-11-15T05:43:33;28.00;;;19.25;;
64560;SDS011;50960;46.838;16.838;2022-11-15T05:46:02;31.08;;;19.48;;
64560;SDS011;50960;46.838;16.838;2022-11-15T05:48:29;30.58;;;21.45;;
64560;SDS011;50960;46.838;16.838;2022-11-15T05:50:56;29.45;;;19.95;;
64560;SDS011;50960;46.838;16.838;2022-11-15T05:53:24;28.27;;;18.38;;
64560;SDS011;50960;46.838;16.838;2022-11-15T05:55:51;30.55;;;20.08;;
64560;SDS011;50960;46.838;16.838;2022-11-15T05:58:18;31.90;;;20.15;;
64560;SDS011;50960;46.838;16.838;2022-11-15T06:00:45;31.15;;;21.17;;
64560;SDS011;50960;46.838;16.838;2022-11-15T06:03:12;31.15;;;20.73;;
64560;SDS011;50960;46.838;16.838;2022-11-15T06:05:39;30.52;;;19.73;;
64560;SDS011;50960;46.838;16.838;2022-11-15T06:08:06;35.20;;;21.45;;
64560;SDS011;50960;46.838;16.838;2022-11-15T06:10:32;29.55;;;19.98;;
64560;SDS011;50960;46.838;16.838;2022-11-15T06:12:59;29.50;;;19.40;;
64560;SDS011;50960;46.838;16.838;2022-11-15T06:15:26;29.55;;;18.75;;
64560;SDS011;50960;46.838;16.838;2022-11-15T06:17:55;29.23;;;19.33;;
64560;SDS011;50960;46.838;16.838;2022-11-15T06:20:26;27.38;;;18.02;;
64560;SDS011;50960;46.838;16.838;2022-11-15T06:22:57;29.80;;;19.95;;
64560;SDS011;50960;46.838;16.838;2022-11-15T06:25:27;26.27;;;18.42;;
64560;SDS011;50960;46.838;16.838;2022-11-15T06:27:55;26.25;;;18.17;;
64560;SDS011;50960;46.838;16.838;2022-11-15T06:30:23;26.90;;;17.80;;
64560;SDS011;50960;46.838;16.838;2022-11-15T06:32:50;27.85;;;17.48;;
64560;SDS011;50960;46.838;16.838;2022-11-15T06:35:17;26.05;;;17.67;;
64560;SDS011;50960;46.838;16.838;2022-11-15T06:37:43;25.90;;;18.02;;
64560;SDS011;50960;46.838;16.838;2022-11-15T06:40:10;25.88;;;18.17;;
64560;SDS011;50960;46.838;16.838;2022-11-15T06:42:36;25.67;;;18.08;;
64560;SDS011;50960;46.838;16.838;2022-11-15T06:45:02;26.52;;;18.27;;
64560;SDS011;50960;46.838;16.838;2022-11-15T06:47:29;24.45;;;18.02;;
64560;SDS011;50960;46.838;16.838;2022-11-15T06:49:55;25.25;;;17.55;;
64560;SDS011;50960;46.838;16.838;2022-11-15T06:52:21;26.23;;;17.20;;
64560;SDS011;50960;46.838;16.838;2022-11-15T06:54:48;27.83;;;18.05;;
64560;SDS011;50960;46.838;16.838;2022-11-15T06:57:14;27.10;;;18.83;;
64560;SDS011;50960;46.838;16.838;2022-11-15T06:59:40;29.60;;;18.55;;
64560;SDS011;50960;46.838;16.838;2022-11-15T07:02:11;29.30;;;18.50;;
64560;SDS011;50960;46.838;16.838;2022-11-15T07:04:38;24.83;;;17.20;;
64560;SDS011;50960;46.838;16.838;2022-11-15T07:07:05;24.73;;;16.38;;
64560;SDS011;50960;46.838;16.838;2022-11-15T07:09:31;22.95;;;16.58;;
64560;SDS011;50960;46.838;16.838;2022-11-15T07:11:57;22.15;;;15.10;;
64560;SDS011;50960;46.838;16.838;2022-11-15T07:14:24;23.20;;;16.10;;
64560;SDS011;50960;46.838;16.838;2022-11-15T07:16:50;21.42;;;16.25;;
64560;SDS011;50960;46.838;16.838;2022-11-15T07:19:16;21.92;;;15.18;;
64560;SDS011;50960;46.838;16.838;2022-11-15T07:21:42;20.15;;;15.35;;
64560;SDS011;50960;46.838;16.838;2022-11-15T07:24:08;22.70;;;16.73;;
64560;SDS011;50960;46.838;16.838;2022-11-15T07:26:35;22.65;;;17.15;;
64560;SDS011;50960;46.838;16.838;2022-11-15T07:29:01;23.38;;;16.60;;
64560;SDS011;50960;46.838;16.838;2022-11-15T07:31:27;21.67;;;15.75;;
64560;SDS011;50960;46.838;16.838;2022-11-15T07:33:53;22.20;;;14.75;;
64560;SDS011;50960;46.838;16.838;2022-11-15T07:36:20;21.80;;;15.60;;
64560;SDS011;50960;46.838;16.838;2022-11-15T07:38:46;23.70;;;16.45;;
64560;SDS011;50960;46.838;16.838;2022-11-15T07:41:12;25.38;;;17.33;;
64560;SDS011;50960;46.838;16.838;2022-11-15T07:43:38;24.42;;;17.33;;
64560;SDS011;50960;46.838;16.838;2022-11-15T07:46:05;24.05;;;17.33;;
64560;SDS011;50960;46.838;16.838;2022-11-15T07:48:35;25.98;;;18.58;;
64560;SDS011;50960;46.838;16.838;2022-11-15T07:51:02;25.58;;;18.70;;
64560;SDS011;50960;46.838;16.838;2022-11-15T07:53:28;25.67;;;16.80;;
64560;SDS011;50960;46.838;16.838;2022-11-15T07:55:54;23.77;;;15.75;;
64560;SDS011;50960;46.838;16.838;2022-11-15T07:58:21;24.25;;;17.13;;
64560;SDS011;50960;46.838;16.838;2022-11-15T08:00:47;25.88;;;18.45;;
64560;SDS011;50960;46.838;16.838;2022-11-15T08:03:14;25.70;;;17.98;;
64560;SDS011;50960;46.838;16.838;2022-11-15T08:05:42;27.60;;;18.75;;
64560;SDS011;50960;46.838;16.838;2022-11-15T08:08:15;27.77;;;19.52;;
64560;SDS011;50960;46.838;16.838;2022-11-15T08:10:41;24.35;;;16.45;;
64560;SDS011;50960;46.838;16.838;2022-11-15T08:13:08;25.85;;;17.88;;
64560;SDS011;50960;46.838;16.838;2022-11-15T08:15:36;25.48;;;18.65;;
64560;SDS011;50960;46.838;16.838;2022-11-15T08:18:04;26.17;;;18.65;;
64560;SDS011;50960;46.838;16.838;2022-11-15T08:20:38;25.35;;;18.50;;
64560;SDS011;50960;46.838;16.838;2022-11-15T08:23:05;27.00;;;18.73;;
64560;SDS011;50960;46.838;16.838;2022-11-15T08:25:32;24.33;;;16.92;;
64560;SDS011;50960;46.838;16.838;2022-11-15T08:28:00;23.50;;;17.15;;
64560;SDS011;50960;46.838;16.838;2022-11-15T08:30:28;22.35;;;16.65;;
64560;SDS011;50960;46.838;16.838;2022-11-15T08:32:56;23.88;;;17.50;;
64560;SDS011;50960;46.838;16.838;2022-11-15T08:35:24;24.83;;;17.70;;
64560;SDS011;50960;46.838;16.838;2022-11-15T08:37:52;23.85;;;16.98;;
64560;SDS011;50960;46.838;16.838;2022-11-15T08:40:19;25.88;;;19.90;;
64560;SDS011;50960;46.838;16.838;2022-11-15T08:42:45;25.90;;;18.85;;
64560;SDS011;50960;46.838;16.838;2022-11-15T08:45:12;22.08;;;16.85;;
64560;SDS011;50960;46.838;16.838;2022-11-15T08:47:38;20.35;;;15.80;;
64560;SDS011;50960;46.838;16.838;2022-11-15T08:50:05;22.38;;;17.38;;
64560;SDS011;50960;46.838;16.838;2022-11-15T08:52:32;22.38;;;17.85;;
64560;SDS011;50960;46.838;16.838;2022-11-15T08:54:58;20.92;;;16.23;;
64560;SDS011;50960;46.838;16.838;2022-11-15T08:57:24;19.92;;;16.08;;
64560;SDS011;50960;46.838;16.838;2022-11-15T08:59:54;21.45;;;16.70;;
64560;SDS011;50960;46.838;16.838;2022-11-15T09:02:20;20.50;;;16.52;;
64560;SDS011;50960;46.838;16.838;2022-11-15T09:04:46;22.33;;;16.88;;
64560;SDS011;50960;46.838;16.838;2022-11-15T09:07:13;20.60;;;16.00;;
64560;SDS011;50960;46.838;16.838;2022-11-15T09:09:40;21.80;;;16.80;;
64560;SDS011;50960;46.838;16.838;2022-11-15T09:12:06;21.13;;;16.08;;
64560;SDS011;50960;46.838;16.838;2022-11-15T09:14:33;20.48;;;15.82;;
64560;SDS011;50960;46.838;16.838;2022-11-15T09:16:59;19.15;;;15.65;;
64560;SDS011;50960;46.838;16.838;2022-11-15T09:19:26;20.23;;;16.35;;
64560;SDS011;50960;46.838;16.838;2022-11-15T09:21:53;19.63;;;15.88;;
64560;SDS011;50960;46.838;16.838;2022-11-15T09:24:20;18.48;;;14.40;;
64560;SDS011;50960;46.838;16.838;2022-11-15T09:26:46;20.08;;;15.95;;
64560;SDS011;50960;46.838;16.838;2022-11-15T09:29:14;20.55;;;16.02;;
64560;SDS011;50960;46.838;16.838;2022-11-15T09:31:41;30.35;;;22.23;;
64560;SDS011;50960;46.838;16.838;2022-11-15T09:34:07;17.27;;;15.07;;
64560;SDS011;50960;46.838;16.838;2022-11-15T09:36:33;19.20;;;15.68;;
64560;SDS011;50960;46.838;16.838;2022-11-15T09:39:00;22.00;;;15.68;;
64560;SDS011;50960;46.838;16.838;2022-11-15T09:49:23;18.80;;;15.45;;
64560;SDS011;50960;46.838;16.838;2022-11-15T09:51:50;19.10;;;15.55;;
64560;SDS011;50960;46.838;16.838;2022-11-15T09:54:32;21.70;;;16.98;;
64560;SDS011;50960;46.838;16.838;2022-11-15T10:00:20;21.80;;;16.95;;
64560;SDS011;50960;46.838;16.838;2022-11-15T10:05:38;23.00;;;17.45;;
64560;SDS011;50960;46.838;16.838;2022-11-15T10:11:02;23.38;;;18.40;;
64560;SDS011;50960;46.838;16.838;2022-11-15T10:13:33;24.23;;;18.67;;
64560;SDS011;50960;46.838;16.838;2022-11-15T10:16:17;24.73;;;19.15;;
64560;SDS011;50960;46.838;16.838;2022-11-15T10:24:41;24.00;;;18.42;;
64560;SDS011;50960;46.838;16.838;2022-11-15T10:27:14;28.27;;;20.17;;
64560;SDS011;50960;46.838;16.838;2022-11-15T10:29:45;25.30;;;19.23;;
64560;SDS011;50960;46.838;16.838;2022-11-15T10:32:14;27.10;;;20.40;;
64560;SDS011;50960;46.838;16.838;2022-11-15T10:34:42;25.67;;;19.17;;
64560;SDS011;50960;46.838;16.838;2022-11-15T10:37:09;23.15;;;17.95;;
64560;SDS011;50960;46.838;16.838;2022-11-15T10:39:35;26.73;;;18.90;;
64560;SDS011;50960;46.838;16.838;2022-11-15T10:42:35;25.05;;;18.83;;
64560;SDS011;50960;46.838;16.838;2022-11-15T10:44:55;24.55;;;18.35;;
64560;SDS011;50960;46.838;16.838;2022-11-15T10:47:25;22.80;;;17.92;;
64560;SDS011;50960;46.838;16.838;2022-11-15T10:50:00;21.90;;;17.52;;
64560;SDS011;50960;46.838;16.838;2022-11-15T10:52:50;22.45;;;17.17;;
64560;SDS011;50960;46.838;16.838;2022-11-15T10:57:48;22.30;;;17.40;;
64560;SDS011;50960;46.838;16.838;2022-11-15T11:05:28;21.50;;;16.45;;
64560;SDS011;50960;46.838;16.838;2022-11-15T11:10:40;22.08;;;16.83;;
64560;SDS011;50960;46.838;16.838;2022-11-15T11:13:26;22.02;;;16.75;;
64560;SDS011;50960;46.838;16.838;2022-11-15T11:27:17;24.63;;;17.15;;
64560;SDS011;50960;46.838;16.838;2022-11-15T11:30:05;20.80;;;16.80;;
64560;SDS011;50960;46.838;16.838;2022-11-15T11:35:23;23.10;;;16.42;;
64560;SDS011;50960;46.838;16.838;2022-11-15T11:38:10;22.88;;;16.75;;
64560;SDS011;50960;46.838;16.838;2022-11-15T11:41:37;22.10;;;16.85;;
64560;SDS011;50960;46.838;16.838;2022-11-15T11:43:59;23.70;;;17.73;;
64560;SDS011;50960;46.838;16.838;2022-11-15T11:46:59;27.33;;;20.10;;
64560;SDS011;50960;46.838;16.838;2022-11-15T11:57:40;26.20;;;19.40;;
64560;SDS011;50960;46.838;16.838;2022-11-15T12:02:57;27.50;;;19.08;;
64560;SDS011;50960;46.838;16.838;2022-11-15T12:05:44;25.25;;;18.50;;
64560;SDS011;50960;46.838;16.838;2022-11-15T12:08:22;29.00;;;19.80;;
64560;SDS011;50960;46.838;16.838;2022-11-15T12:13:33;25.38;;;18.60;;
64560;SDS011;50960;46.838;16.838;2022-11-15T12:18:36;25.05;;;18.50;;
64560;SDS011;50960;46.838;16.838;2022-11-15T12:21:50;25.70;;;19.25;;
64560;SDS011;50960;46.838;16.838;2022-11-15T12:24:04;22.92;;;16.83;;
64560;SDS011;50960;46.838;16.838;2022-11-15T12:26:54;22.77;;;16.02;;
64560;SDS011;50960;46.838;16.838;2022-11-15T12:29:45;22.83;;;17.20;;
64560;SDS011;50960;46.838;16.838;2022-11-15T12:32:27;25.98;;;16.40;;
64560;SDS011;50960;46.838;16.838;2022-11-15T12:34:54;24.58;;;17.75;;
64560;SDS011;50960;46.838;16.838;2022-11-15T12:37:55;22.17;;;16.70;;
64560;SDS011;50960;46.838;16.838;2022-11-15T12:45:35;22.15;;;15.00;;
64560;SDS011;50960;46.838;16.838;2022-11-15T12:53:35;18.33;;;13.40;;
64560;SDS011;50960;46.838;16.838;2022-11-15T12:58:46;20.38;;;16.65;;
64560;SDS011;50960;46.838;16.838;2022-11-15T13:02:00;21.73;;;15.20;;
64560;SDS011;50960;46.838;16.838;2022-11-15T13:07:03;20.02;;;16.33;;
64560;SDS011;50960;46.838;16.838;2022-11-15T13:20:33;23.90;;;18.33;;
64560;SDS011;50960;46.838;16.838;2022-11-15T13:33:25;21.60;;;14.50;;
64560;SDS011;50960;46.838;16.838;2022-11-15T13:36:07;21.27;;;16.95;;
64560;SDS011;50960;46.838;16.838;2022-11-15T13:38:40;23.17;;;17.15;;
64560;SDS011;50960;46.838;16.838;2022-11-15T13:43:46;21.77;;;16.55;;
64560;SDS011;50960;46.838;16.838;2022-11-15T13:46:18;21.40;;;16.50;;
64560;SDS011;50960;46.838;16.838;2022-11-15T13:48:50;20.63;;;15.53;;
64560;SDS011;50960;46.838;16.838;2022-11-15T13:51:30;21.27;;;16.55;;
64560;SDS011;50960;46.838;16.838;2022-11-15T13:57:12;23.52;;;18.30;;
64560;SDS011;50960;46.838;16.838;2022-11-15T13:59:51;22.90;;;17.63;;
64560;SDS011;50960;46.838;16.838;2022-11-15T14:02:26;25.40;;;19.63;;
64560;SDS011;50960;46.838;16.838;2022-11-15T14:04:56;24.83;;;19.00;;
64560;SDS011;50960;46.838;16.838;2022-11-15T14:07:26;24.58;;;18.95;;
64560;SDS011;50960;46.838;16.838;2022-11-15T14:09:54;23.55;;;18.23;;
64560;SDS011;50960;46.838;16.838;2022-11-15T14:12:25;20.52;;;16.85;;
64560;SDS011;50960;46.838;16.838;2022-11-15T14:14:52;19.63;;;16.35;;
64560;SDS011;50960;46.838;16.838;2022-11-15T14:17:20;21.33;;;16.02;;
64560;SDS011;50960;46.838;16.838;2022-11-15T14:20:40;21.35;;;17.23;;
64560;SDS011;50960;46.838;16.838;2022-11-15T14:23:23;21.75;;;17.35;;
64560;SDS011;50960;46.838;16.838;2022-11-15T14:25:57;22.60;;;18.02;;
64560;SDS011;50960;46.838;16.838;2022-11-15T14:30:51;23.77;;;17.92;;
64560;SDS011;50960;46.838;16.838;2022-11-15T14:36:11;21.48;;;17.40;;
64560;SDS011;50960;46.838;16.838;2022-11-15T14:38:40;22.00;;;16.73;;
64560;SDS011;50960;46.838;16.838;2022-11-15T14:43:44;24.27;;;18.23;;
64560;SDS011;50960;46.838;16.838;2022-11-15T14:46:10;24.52;;;20.02;;
64560;SDS011;50960;46.838;16.838;2022-11-15T14:48:37;25.70;;;19.67;;
64560;SDS011;50960;46.838;16.838;2022-11-15T14:51:03;25.25;;;17.52;;
64560;SDS011;50960;46.838;16.838;2022-11-15T14:53:35;21.80;;;16.95;;
64560;SDS011;50960;46.838;16.838;2022-11-15T14:56:01;26.63;;;17.08;;
64560;SDS011;50960;46.838;16.838;2022-11-15T14:58:28;24.63;;;18.10;;
64560;SDS011;50960;46.838;16.838;2022-11-15T15:00:54;27.88;;;18.98;;
64560;SDS011;50960;46.838;16.838;2022-11-15T15:03:20;26.45;;;18.95;;
64560;SDS011;50960;46.838;16.838;2022-11-15T15:05:47;24.95;;;19.55;;
64560;SDS011;50960;46.838;16.838;2022-11-15T15:08:13;22.77;;;16.45;;
64560;SDS011;50960;46.838;16.838;2022-11-15T15:10:43;23.85;;;17.10;;
64560;SDS011;50960;46.838;16.838;2022-11-15T15:13:18;22.73;;;16.92;;
64560;SDS011;50960;46.838;16.838;2022-11-15T15:15:46;24.70;;;18.52;;
64560;SDS011;50960;46.838;16.838;2022-11-15T15:18:12;23.75;;;17.25;;
64560;SDS011;50960;46.838;16.838;2022-11-15T15:20:39;23.30;;;17.88;;
64560;SDS011;50960;46.838;16.838;2022-11-15T15:23:17;21.00;;;16.35;;
64560;SDS011;50960;46.838;16.838;2022-11-15T15:25:45;22.55;;;16.85;;
64560;SDS011;50960;46.838;16.838;2022-11-15T15:28:13;24.17;;;18.10;;
64560;SDS011;50960;46.838;16.838;2022-11-15T15:30:39;21.90;;;16.77;;
64560;SDS011;50960;46.838;16.838;2022-11-15T15:33:06;23.00;;;17.45;;
64560;SDS011;50960;46.838;16.838;2022-11-15T15:35:33;22.45;;;17.80;;
64560;SDS011;50960;46.838;16.838;2022-11-15T15:38:00;26.50;;;17.20;;
64560;SDS011;50960;46.838;16.838;2022-11-15T15:40:27;20.83;;;15.05;;
64560;SDS011;50960;46.838;16.838;2022-11-15T15:42:55;22.02;;;17.67;;
64560;SDS011;50960;46.838;16.838;2022-11-15T15:45:21;21.30;;;14.75;;
64560;SDS011;50960;46.838;16.838;2022-11-15T15:47:47;20.65;;;14.82;;
64560;SDS011;50960;46.838;16.838;2022-11-15T15:50:36;21.05;;;15.82;;
64560;SDS011;50960;46.838;16.838;2022-11-15T15:53:02;20.25;;;14.38;;
64560;SDS011;50960;46.838;16.838;2022-11-15T15:55:30;21.27;;;17.65;;
64560;SDS011;50960;46.838;16.838;2022-11-15T15:57:56;21.40;;;16.70;;
64560;SDS011;50960;46.838;16.838;2022-11-15T16:00:23;16.25;;;12.90;;
64560;SDS011;50960;46.838;16.838;2022-11-15T16:02:51;21.40;;;16.58;;
64560;SDS011;50960;46.838;16.838;2022-11-15T16:05:18;21.67;;;17.50;;
64560;SDS011;50960;46.838;16.838;2022-11-15T16:07:44;21.35;;;17.45;;
64560;SDS011;50960;46.838;16.838;2022-11-15T16:10:20;19.40;;;15.23;;
64560;SDS011;50960;46.838;16.838;2022-11-15T16:12:54;22.00;;;16.02;;
64560;SDS011;50960;46.838;16.838;2022-11-15T16:15:23;20.65;;;16.98;;
64560;SDS011;50960;46.838;16.838;2022-11-15T16:17:54;21.50;;;14.90;;
64560;SDS011;50960;46.838;16.838;2022-11-15T16:20:29;23.75;;;19.23;;
64560;SDS011;50960;46.838;16.838;2022-11-15T16:22:58;22.10;;;18.10;;
64560;SDS011;50960;46.838;16.838;2022-11-15T16:25:26;21.70;;;17.20;;
64560;SDS011;50960;46.838;16.838;2022-11-15T16:27:52;24.40;;;19.30;;
64560;SDS011;50960;46.838;16.838;2022-11-15T16:30:20;23.67;;;19.88;;
64560;SDS011;50960;46.838;16.838;2022-11-15T16:32:47;27.20;;;20.13;;
64560;SDS011;50960;46.838;16.838;2022-11-15T16:35:14;27.13;;;19.60;;
64560;SDS011;50960;46.838;16.838;2022-11-15T16:37:41;29.85;;;22.83;;
64560;SDS011;50960;46.838;16.838;2022-11-15T16:45:11;23.60;;;17.73;;
64560;SDS011;50960;46.838;16.838;2022-11-15T16:47:39;25.75;;;19.70;;
64560;SDS011;50960;46.838;16.838;2022-11-15T16:50:05;23.38;;;18.83;;
64560;SDS011;50960;46.838;16.838;2022-11-15T16:52:32;26.50;;;19.45;;
64560;SDS011;50960;46.838;16.838;2022-11-15T16:54:58;29.67;;;22.10;;
64560;SDS011;50960;46.838;16.838;2022-11-15T16:57:24;29.08;;;22.38;;
64560;SDS011;50960;46.838;16.838;2022-11-15T16:59:50;28.48;;;23.48;;